createdAt,value
2018-01-11T00:01:32.572Z,89.10
2018-01-11T00:04:00.982Z,89.20
2018-01-11T00:06:30.221Z,87.00
2018-01-11T00:08:58.621Z,87.90
2018-01-11T00:11:28.264Z,86.90
2018-01-11T00:13:56.889Z,86.80
2018-01-11T00:16:29.012Z,87.90
2018-01-11T00:18:57.314Z,87.00
2018-01-11T00:21:25.692Z,86.90
2018-01-11T00:23:54.217Z,87.20
2018-01-11T00:26:23.681Z,86.70
2018-01-11T00:28:52.374Z,86.50
2018-01-11T00:31:20.933Z,86.10
2018-01-11T00:33:49.182Z,87.60
2018-01-11T00:36:17.504Z,86.90
2018-01-11T00:38:46.880Z,86.40
2018-01-11T00:41:16.113Z,86.10
2018-01-11T00:43:44.569Z,87.00
2018-01-11T00:46:15.049Z,86.40
2018-01-11T00:48:46.165Z,88.00
2018-01-11T00:51:14.544Z,87.90
2018-01-11T00:53:42.953Z,86.40
2018-01-11T00:56:11.964Z,86.30
2018-01-11T00:58:40.608Z,86.20
2018-01-11T01:01:09.682Z,86.50
2018-01-11T03:21:38.413Z,87.10
2018-01-11T03:24:06.671Z,86.60
2018-01-11T03:26:34.923Z,88.40
2018-01-11T03:29:03.683Z,88.30
2018-01-11T03:31:31.930Z,87.30
2018-01-11T03:34:00.187Z,89.30
2018-01-11T03:36:28.998Z,87.60
2018-01-11T03:38:57.338Z,88.10
2018-01-11T03:41:26.355Z,88.40
2018-01-11T03:43:54.994Z,88.30
2018-01-11T03:46:23.369Z,88.50
2018-01-11T03:48:51.621Z,87.50
2018-01-11T03:51:20.218Z,89.20
2018-01-11T03:53:48.470Z,87.40
2018-01-11T03:56:16.726Z,88.10
2018-01-11T03:58:45.578Z,88.00
2018-01-11T04:01:13.827Z,87.80
2018-01-11T04:03:42.074Z,88.40
2018-01-11T04:06:11.253Z,86.80
2018-01-11T04:08:39.518Z,86.40
2018-01-11T04:11:07.771Z,86.50
2018-01-11T04:13:36.351Z,85.80
2018-01-11T04:16:04.602Z,85.70
2018-01-11T04:18:32.859Z,86.50
2018-01-11T04:21:01.535Z,85.60
2018-01-11T04:23:30.003Z,85.10
2018-01-11T04:25:59.022Z,86.40
2018-01-11T04:28:28.035Z,86.40
2018-01-11T04:30:56.290Z,87.10
2018-01-11T04:33:24.543Z,86.80
2018-01-11T04:35:53.402Z,86.80
2018-01-11T04:38:21.655Z,86.90
2018-01-11T04:40:49.912Z,87.50
2018-01-11T04:43:18.620Z,87.30
2018-01-11T04:45:46.871Z,86.30
2018-01-11T04:48:15.122Z,86.00
2018-01-11T04:50:44.367Z,85.20
2018-01-11T04:53:12.622Z,86.30
2018-01-11T04:55:40.870Z,87.20
2018-01-11T04:58:09.527Z,86.80
2018-01-11T05:00:44.366Z,86.30
2018-01-11T05:03:14.096Z,86.00
2018-01-11T05:05:43.255Z,86.10
2018-01-11T05:08:11.506Z,86.30
2018-01-11T05:10:40.343Z,86.20
2018-01-11T05:13:08.594Z,86.70
2018-01-11T05:15:36.842Z,86.20
2018-01-11T05:18:05.455Z,86.70
2018-01-11T05:20:33.705Z,87.20
2018-01-11T05:23:01.955Z,86.80
2018-01-11T05:25:30.883Z,86.70
2018-01-11T05:27:59.130Z,88.10
2018-01-11T05:30:27.378Z,87.40
2018-01-11T05:32:56.347Z,88.10
2018-01-11T05:35:24.594Z,87.30
2018-01-11T05:37:52.850Z,87.40
2018-01-11T05:40:21.482Z,86.80
2018-01-11T05:42:49.764Z,86.60
2018-01-11T05:45:18.005Z,87.40
2018-01-11T05:47:47.559Z,86.80
2018-01-11T05:50:15.818Z,87.50
2018-01-11T05:52:44.063Z,87.50
2018-01-11T05:55:12.977Z,86.90
2018-01-11T05:57:41.234Z,88.10
2018-01-11T06:00:09.486Z,87.30
2018-01-11T06:02:38.115Z,87.10
2018-01-11T06:05:06.366Z,87.90
2018-01-11T06:07:34.618Z,87.80
2018-01-11T06:10:03.259Z,87.50
2018-01-11T06:12:31.506Z,87.60
2018-01-11T06:14:59.755Z,88.00
2018-01-11T06:17:28.670Z,87.60
2018-01-11T06:19:58.586Z,87.60
2018-01-11T06:22:26.838Z,87.50
2018-01-11T06:24:55.422Z,87.50
2018-01-11T06:27:24.019Z,87.90
2018-01-11T06:29:53.034Z,87.20
2018-01-11T06:32:21.750Z,87.10
2018-01-11T06:34:49.998Z,87.30
2018-01-11T06:37:18.257Z,86.40
2018-01-11T06:39:48.027Z,86.50
2018-01-11T06:42:16.279Z,85.40
2018-01-11T06:44:44.534Z,85.70
2018-01-11T06:47:13.134Z,86.30
2018-01-11T06:49:41.409Z,86.90
2018-01-11T06:52:09.642Z,87.00
2018-01-11T06:54:39.073Z,87.40
2018-01-11T06:57:07.486Z,87.30
2018-01-11T06:59:35.718Z,86.90
2018-01-11T07:02:05.351Z,87.00
2018-01-11T07:04:33.603Z,87.00
2018-01-11T07:07:01.854Z,86.80
2018-01-11T07:09:30.511Z,86.40
2018-01-11T07:11:58.806Z,86.40
2018-01-11T07:14:27.063Z,86.40
2018-01-11T07:16:55.659Z,86.10
2018-01-11T07:19:23.947Z,86.40
2018-01-11T07:21:52.422Z,86.50
2018-01-11T07:24:21.082Z,87.30
2018-01-11T07:26:49.330Z,87.80
2018-01-11T07:29:17.798Z,87.60
2018-01-11T07:31:47.446Z,87.30
2018-01-11T07:34:15.701Z,87.20
2018-01-11T07:36:43.954Z,88.20
2018-01-11T07:39:12.586Z,87.00
2018-01-11T07:41:40.843Z,86.50
2018-01-11T07:44:09.095Z,86.20
2018-01-11T07:46:38.036Z,86.40
2018-01-11T07:49:06.286Z,85.50
2018-01-11T07:51:34.531Z,86.10
2018-01-11T07:54:03.283Z,86.10
2018-01-11T07:56:32.698Z,85.20
2018-01-11T07:59:00.949Z,86.10
2018-01-11T08:01:29.845Z,84.70
2018-01-11T08:03:58.098Z,82.50
2018-01-11T08:06:26.350Z,83.60
2018-01-11T08:08:55.294Z,83.90
2018-01-11T08:11:23.539Z,86.30
2018-01-11T08:13:51.795Z,85.20
2018-01-11T08:16:22.200Z,83.70
2018-01-11T08:18:50.615Z,83.70
2018-01-11T08:21:18.950Z,85.20
2018-01-11T08:23:47.719Z,86.10
2018-01-11T08:26:15.970Z,84.50
2018-01-11T08:28:44.222Z,83.60
2018-01-11T08:31:13.471Z,86.00
2018-01-11T08:33:41.719Z,85.00
2018-01-11T08:36:11.263Z,86.10
2018-01-11T08:38:41.014Z,86.20
2018-01-11T08:41:10.501Z,86.80
2018-01-11T08:43:38.751Z,86.80
2018-01-11T08:46:07.426Z,86.10
2018-01-11T08:48:35.682Z,86.50
2018-01-11T08:51:03.935Z,87.00
2018-01-11T08:53:32.610Z,86.10
2018-01-11T08:56:00.863Z,87.00
2018-01-11T08:58:29.113Z,85.90
2018-01-11T09:00:57.708Z,85.70
2018-01-11T09:03:26.035Z,84.10
2018-01-11T09:05:55.542Z,84.60
2018-01-11T09:08:24.375Z,84.60
2018-01-11T09:10:52.634Z,83.50
2018-01-11T09:13:20.885Z,81.90
2018-01-11T09:15:50.039Z,82.00
2018-01-11T09:18:18.299Z,82.60
2018-01-11T09:20:46.551Z,82.90
2018-01-11T09:23:17.115Z,83.50
2018-01-11T09:25:45.363Z,84.70
2018-01-11T09:28:13.615Z,84.80
2018-01-11T09:30:42.787Z,84.90
2018-01-11T09:33:11.466Z,83.20
2018-01-11T09:35:39.718Z,84.70
2018-01-11T09:38:08.918Z,85.00
2018-01-11T09:40:37.174Z,84.50
2018-01-11T09:43:05.426Z,83.40
2018-01-11T09:45:34.548Z,84.00
2018-01-11T09:48:02.782Z,83.50
2018-01-11T09:50:31.031Z,83.80
2018-01-11T09:52:59.806Z,84.20
2018-01-11T09:55:28.054Z,83.80
2018-01-11T09:57:56.306Z,83.60
2018-01-11T10:00:25.084Z,83.90
2018-01-11T10:02:53.332Z,83.40
2018-01-11T10:05:21.583Z,83.90
2018-01-11T10:07:50.546Z,83.40
2018-01-11T10:10:19.218Z,83.10
2018-01-11T10:12:47.472Z,83.40
2018-01-11T10:15:16.153Z,83.40
2018-01-11T10:17:44.398Z,81.10
2018-01-11T10:20:12.653Z,82.40
2018-01-11T10:22:41.586Z,81.50
2018-01-11T10:25:09.838Z,81.10
2018-01-11T10:27:38.090Z,81.30
2018-01-11T10:30:06.727Z,82.40
2018-01-11T10:32:34.982Z,79.50
2018-01-11T10:35:03.967Z,80.00
2018-01-11T10:37:32.558Z,79.90
2018-01-11T10:40:00.806Z,80.00
2018-01-11T10:42:29.822Z,77.30
2018-01-11T10:44:58.841Z,77.20
2018-01-11T10:47:27.099Z,75.20
2018-01-11T10:49:55.346Z,73.00
2018-01-11T10:52:24.506Z,75.50
2018-01-11T10:54:52.757Z,76.60
2018-01-11T10:57:21.006Z,76.80
2018-01-11T10:59:50.662Z,77.70
2018-01-11T11:02:24.499Z,77.70
2018-01-11T11:04:53.234Z,77.30
2018-01-11T11:07:21.483Z,78.60
2018-01-11T11:09:49.735Z,77.70
2018-01-11T11:12:18.386Z,78.30
2018-01-11T11:14:46.643Z,77.80
2018-01-11T11:17:14.890Z,77.70
2018-01-11T11:19:43.543Z,76.80
2018-01-11T11:22:11.867Z,77.10
2018-01-11T11:24:40.526Z,78.10
2018-01-11T11:27:09.184Z,77.10
2018-01-11T11:29:37.635Z,77.40
2018-01-11T11:32:05.842Z,76.90
2018-01-11T11:34:35.002Z,77.10
2018-01-11T11:37:05.175Z,77.20
2018-01-11T11:39:33.426Z,77.20
2018-01-11T11:42:02.143Z,77.80
2018-01-11T11:44:30.402Z,79.20
2018-01-11T11:46:58.654Z,79.00
2018-01-11T11:49:27.482Z,76.70
2018-01-11T11:51:55.759Z,72.50
2018-01-11T11:54:24.138Z,75.90
2018-01-11T11:56:52.902Z,72.10
2018-01-11T11:59:21.158Z,70.00
2018-01-11T12:01:49.410Z,74.60
2018-01-11T12:04:18.152Z,75.30
2018-01-11T12:06:46.394Z,73.50
2018-01-11T12:09:14.654Z,72.80
2018-01-11T12:11:43.487Z,72.00
2018-01-11T12:14:11.744Z,72.20
2018-01-11T12:16:39.994Z,71.40
2018-01-11T12:19:09.866Z,73.10
2018-01-11T12:21:38.126Z,70.40
2018-01-11T12:24:07.343Z,72.00
2018-01-11T12:26:35.925Z,69.00
2018-01-11T12:29:04.392Z,69.00
2018-01-11T12:31:32.630Z,67.40
2018-01-11T12:34:01.354Z,69.50
2018-01-11T12:36:30.270Z,67.90
2018-01-11T12:38:58.533Z,68.10
2018-01-11T12:41:27.410Z,70.00
2018-01-11T12:43:55.671Z,70.00
2018-01-11T12:46:23.926Z,67.90
2018-01-11T12:48:52.551Z,68.20
2018-01-11T12:51:20.814Z,69.80
2018-01-11T12:53:49.234Z,69.10
2018-01-11T12:56:18.319Z,69.70
2018-01-11T12:58:46.579Z,70.00
2018-01-11T13:01:16.715Z,71.80
2018-01-11T13:03:45.823Z,70.10
2018-01-11T13:06:14.058Z,69.60
2018-01-11T13:08:42.328Z,70.40
2018-01-11T13:11:11.456Z,71.40
2018-01-11T13:13:41.798Z,66.80
2018-01-11T13:16:10.057Z,66.20
2018-01-11T13:18:40.486Z,69.40
2018-01-11T13:21:08.746Z,70.40
2018-01-11T13:23:37.007Z,69.70
2018-01-11T13:26:05.621Z,66.10
2018-01-11T13:28:33.911Z,65.90
2018-01-11T13:31:02.171Z,66.80
2018-01-11T13:33:30.791Z,67.90
2018-01-11T13:35:59.814Z,70.30
2018-01-11T13:38:28.302Z,69.50
2018-01-11T13:40:57.121Z,70.80
2018-01-11T13:43:25.455Z,70.20
2018-01-11T13:45:54.472Z,70.40
2018-01-11T13:48:23.051Z,70.40
2018-01-11T13:50:51.305Z,69.40
2018-01-11T13:53:19.563Z,69.10
2018-01-11T13:55:48.326Z,68.80
2018-01-11T13:58:16.586Z,68.90
2018-01-11T14:00:44.842Z,69.20
2018-01-11T14:03:14.068Z,69.40
2018-01-11T14:05:42.671Z,69.50
2018-01-11T14:08:10.926Z,68.90
2018-01-11T14:10:39.625Z,70.50
2018-01-11T14:13:08.994Z,70.60
2018-01-11T14:15:37.422Z,71.20
2018-01-11T14:18:06.478Z,70.60
2018-01-11T14:20:34.739Z,71.60
2018-01-11T14:23:02.999Z,71.80
2018-01-11T14:25:33.584Z,71.40
2018-01-11T14:28:01.826Z,71.40
2018-01-11T14:30:30.166Z,71.50
2018-01-11T14:32:58.915Z,70.90
2018-01-11T14:35:27.171Z,71.00
2018-01-11T14:37:55.427Z,70.90
2018-01-11T14:40:24.059Z,70.90
2018-01-11T14:42:52.310Z,71.20
2018-01-11T14:45:20.566Z,70.40
2018-01-11T14:47:49.498Z,70.50
2018-01-11T14:50:17.787Z,71.20
2018-01-11T14:52:46.030Z,71.20
2018-01-11T14:55:14.645Z,71.60
2018-01-11T14:57:42.898Z,73.00
2018-01-11T15:00:11.215Z,72.90
2018-01-11T15:02:40.621Z,72.50
2018-01-11T15:05:08.903Z,72.60
2018-01-11T15:07:37.382Z,73.50
2018-01-11T15:10:06.198Z,73.00
2018-01-11T15:12:34.426Z,73.00
2018-01-11T15:15:02.828Z,73.70
2018-01-11T15:17:31.582Z,74.00
2018-01-11T15:20:00.691Z,74.70
2018-01-11T15:22:28.995Z,74.50
2018-01-11T15:24:57.722Z,74.90
2018-01-11T15:27:25.970Z,75.10
2018-01-11T15:29:55.637Z,74.80
2018-01-11T15:32:24.807Z,74.70
2018-01-11T15:34:53.059Z,74.80
2018-01-11T15:37:21.311Z,75.10
2018-01-11T15:39:50.066Z,75.70
2018-01-11T15:42:18.322Z,76.20
2018-01-11T15:44:46.751Z,75.90
2018-01-11T15:47:15.515Z,75.60
2018-01-11T15:49:43.762Z,75.30
2018-01-11T15:52:12.014Z,75.50
2018-01-11T15:54:40.969Z,76.20
2018-01-11T15:57:10.178Z,75.70
2018-01-11T15:59:38.431Z,76.40
2018-01-11T16:02:07.332Z,75.30
2018-01-11T16:04:35.592Z,75.10
2018-01-11T16:07:03.840Z,75.50
2018-01-11T16:09:32.462Z,75.50
2018-01-11T16:12:00.710Z,75.40
2018-01-11T16:14:29.171Z,75.70
2018-01-11T16:16:58.982Z,75.60
2018-01-11T16:19:27.628Z,75.50
2018-01-11T16:21:55.906Z,75.90
2018-01-11T16:24:25.512Z,77.00
2018-01-11T16:26:53.671Z,76.30
2018-01-11T16:29:21.927Z,77.00
2018-01-11T16:31:51.443Z,77.10
2018-01-11T16:34:19.863Z,77.30
2018-01-11T16:36:48.279Z,77.20
2018-01-11T16:39:19.077Z,77.20
2018-01-11T16:41:47.463Z,77.20
2018-01-11T16:44:16.765Z,77.50
2018-01-11T16:46:45.529Z,78.10
2018-01-11T16:49:13.778Z,78.80
2018-01-11T16:51:42.035Z,78.90
2018-01-11T16:54:10.659Z,79.00
2018-01-11T16:56:39.271Z,78.30
2018-01-11T16:59:07.518Z,78.80
2018-01-11T17:01:36.416Z,78.20
2018-01-11T17:04:04.666Z,78.60
2018-01-11T17:06:32.918Z,79.20
2018-01-11T17:09:01.801Z,78.50
2018-01-11T17:11:30.043Z,79.20
2018-01-11T17:13:58.292Z,79.50
2018-01-11T17:16:26.994Z,79.20
2018-01-11T17:18:55.251Z,79.90
2018-01-11T17:21:23.679Z,79.30
2018-01-11T17:23:53.589Z,79.00
2018-01-11T17:26:22.890Z,79.60
2018-01-11T17:28:51.166Z,78.70
2018-01-11T17:31:20.035Z,78.60
2018-01-11T17:33:48.295Z,78.80
2018-01-11T17:36:16.719Z,79.30
2018-01-11T17:38:46.776Z,79.80
2018-01-11T17:41:15.020Z,78.90
2018-01-11T17:43:43.700Z,78.30
2018-01-11T17:46:13.719Z,77.90
2018-01-11T17:48:41.990Z,78.50
2018-01-11T17:51:10.379Z,78.10
2018-01-11T17:53:39.130Z,78.40
2018-01-11T17:56:07.935Z,77.90
2018-01-11T17:58:37.354Z,77.80
2018-01-11T18:01:07.037Z,78.10
2018-01-11T18:03:35.351Z,78.70
2018-01-11T18:06:03.911Z,78.50
2018-01-11T18:08:32.558Z,78.70
2018-01-11T18:11:02.051Z,79.00
2018-01-11T18:13:31.314Z,78.90
2018-01-11T18:16:00.198Z,78.70
2018-01-11T18:18:29.615Z,78.30
2018-01-11T18:21:01.810Z,77.10
2018-01-11T18:23:30.122Z,78.10
2018-01-11T18:25:59.359Z,78.70
2018-01-11T18:28:28.337Z,79.00
2018-01-11T18:30:56.734Z,78.40
2018-01-11T18:33:28.162Z,77.80
2018-01-11T18:35:56.948Z,77.60
2018-01-11T18:38:25.250Z,77.10
2018-01-11T18:40:53.695Z,78.10
2018-01-11T18:43:22.408Z,78.60
2018-01-11T18:45:51.635Z,78.60
2018-01-11T18:48:20.294Z,79.30
2018-01-11T18:50:49.319Z,79.90
2018-01-11T18:53:17.782Z,80.70
2018-01-11T18:55:46.142Z,80.90
2018-01-11T18:58:15.026Z,80.90
2018-01-11T19:00:47.526Z,80.40
2018-01-11T19:03:18.236Z,81.20
2018-01-11T19:05:46.483Z,80.40
2018-01-11T19:08:14.803Z,80.30
2018-01-11T19:10:44.799Z,80.50
2018-01-11T19:13:13.098Z,81.10
2018-01-11T19:15:44.546Z,81.70
2018-01-11T19:18:14.192Z,81.80
2018-01-11T19:20:42.530Z,82.10
2018-01-11T19:23:15.290Z,82.80
2018-01-11T19:25:45.751Z,83.20
2018-01-11T19:28:14.118Z,83.20
2018-01-11T19:30:43.197Z,83.60
2018-01-11T19:33:11.490Z,82.80
2018-01-11T19:35:40.834Z,82.70
2018-01-11T19:38:09.569Z,82.50
2018-01-11T19:40:37.859Z,82.80
2018-01-11T19:43:06.299Z,82.60
2018-01-11T19:45:35.624Z,82.40
2018-01-11T19:48:05.071Z,82.30
2018-01-11T19:50:33.526Z,82.50
2018-01-11T19:53:02.599Z,81.70
2018-01-11T19:55:31.087Z,81.90
2018-01-11T19:58:00.626Z,82.10
2018-01-11T20:00:29.278Z,82.00
2018-01-11T20:02:58.494Z,82.80
2018-01-11T20:05:26.878Z,82.40
2018-01-11T20:07:56.569Z,82.60
2018-01-11T20:10:25.782Z,82.80
2018-01-11T20:12:54.171Z,82.20
2018-01-11T20:15:23.871Z,82.30
2018-01-11T20:17:53.087Z,82.00
2018-01-11T20:20:22.391Z,82.10
2018-01-11T20:22:54.325Z,82.70
2018-01-11T20:25:23.737Z,82.40
2018-01-11T20:27:52.122Z,82.70
2018-01-11T20:30:27.650Z,83.20
2018-01-11T20:32:55.963Z,83.00
2018-01-11T20:35:26.170Z,83.10
2018-01-11T20:37:58.662Z,83.20
2018-01-11T20:40:28.159Z,82.90
2018-01-11T20:43:02.747Z,83.70
2018-01-11T20:45:34.137Z,82.90
2018-01-11T20:48:04.738Z,82.40
2018-01-11T20:50:33.034Z,82.30
2018-01-11T20:53:01.406Z,82.40
2018-01-11T20:55:29.814Z,82.60
2018-01-11T20:58:00.186Z,82.00
2018-01-11T21:00:28.459Z,81.90
2018-01-11T21:02:57.714Z,81.70
2018-01-11T21:05:26.747Z,81.50
2018-01-11T21:07:55.063Z,81.40
2018-01-11T21:10:23.806Z,81.50
2018-01-11T21:12:54.294Z,81.90
2018-01-11T21:15:22.854Z,82.10
2018-01-11T21:17:52.298Z,82.20
2018-01-11T21:20:21.327Z,82.20
2018-01-11T21:22:49.844Z,82.10
2018-01-11T21:25:19.442Z,82.50
2018-01-11T21:27:48.867Z,82.70
2018-01-11T21:30:17.238Z,82.40
2018-01-11T21:32:46.006Z,82.10
2018-01-11T21:35:14.294Z,82.80
2018-01-11T21:37:42.679Z,82.60
2018-01-11T21:40:10.954Z,82.50
2018-01-11T21:42:39.216Z,83.80
2018-01-11T21:45:07.508Z,83.20
2018-01-11T21:47:39.915Z,83.80
2018-01-11T21:50:12.870Z,83.20
2018-01-11T21:52:42.568Z,83.20
2018-01-11T21:55:13.026Z,83.20
2018-01-11T21:57:43.254Z,82.60
2018-01-11T22:00:13.451Z,82.90
2018-01-11T22:02:41.834Z,82.80
2018-01-11T22:05:11.159Z,82.70
2018-01-11T22:07:40.442Z,82.60
2018-01-11T22:10:08.855Z,82.40
2018-01-11T22:12:38.215Z,82.30
2018-01-11T22:15:08.643Z,82.70
2018-01-11T22:17:37.143Z,82.90
2018-01-11T22:20:06.370Z,82.80
2018-01-11T22:22:35.374Z,82.40
2018-01-11T22:25:03.690Z,82.30
2018-01-11T22:27:31.966Z,83.10
2018-01-11T22:30:00.225Z,83.90
2018-01-11T22:32:28.474Z,83.80
2018-01-11T22:34:57.294Z,84.20
2018-01-11T22:37:25.541Z,84.60
2018-01-11T22:39:53.795Z,84.30
2018-01-11T22:42:22.079Z,83.90
2018-01-11T22:44:52.261Z,84.10
2018-01-11T22:47:20.648Z,84.20
2018-01-11T22:49:49.966Z,83.80
2018-01-11T22:52:18.991Z,83.10
2018-01-11T22:54:47.262Z,83.00
2018-01-11T22:57:15.766Z,83.10
2018-01-11T22:59:45.384Z,83.90
2018-01-11T23:02:13.695Z,83.90
2018-01-11T23:04:43.645Z,83.90
2018-01-11T23:07:14.626Z,84.20
2018-01-11T23:09:43.619Z,84.30
2018-01-11T23:12:12.178Z,84.20
2018-01-11T23:14:40.491Z,84.00
2018-01-11T23:17:11.942Z,84.10
2018-01-11T23:19:41.350Z,84.10
2018-01-11T23:22:09.734Z,84.20
2018-01-11T23:24:39.851Z,82.30
2018-01-11T23:27:08.603Z,82.20
2018-01-11T23:29:36.922Z,82.40
2018-01-11T23:32:05.291Z,82.00
2018-01-11T23:34:34.783Z,82.00
2018-01-11T23:37:03.779Z,83.00
2018-01-11T23:39:32.768Z,82.70
2018-01-11T23:42:01.799Z,83.20
2018-01-11T23:44:31.426Z,83.50
2018-01-11T23:47:00.089Z,83.50
2018-01-11T23:49:28.658Z,83.70
2018-01-11T23:51:57.854Z,83.50
2018-01-11T23:54:26.483Z,83.50
2018-01-11T23:56:54.945Z,83.30
2018-01-11T23:59:23.966Z,83.40
